createdAt,value
2023-04-26T00:01:06.878Z,0.85
2023-04-26T00:02:09.798Z,0.70
2023-04-26T00:03:15.635Z,1.10
2023-04-26T00:04:19.091Z,0.60
2023-04-26T00:05:22.803Z,0.80
2023-04-26T00:06:27.481Z,0.88
2023-04-26T00:07:30.921Z,0.63
2023-04-26T00:08:33.844Z,0.65
2023-04-26T00:09:36.801Z,0.70
2023-04-26T00:10:40.839Z,0.70
2023-04-26T00:11:43.817Z,0.80
2023-04-26T00:12:46.759Z,0.70
2023-04-26T00:13:49.666Z,0.90
2023-04-26T00:14:52.769Z,0.77
2023-04-26T00:15:55.813Z,0.90
2023-04-26T00:16:58.727Z,1.15
2023-04-26T00:18:01.861Z,0.95
2023-04-26T00:19:04.897Z,0.80
2023-04-26T00:20:10.552Z,1.02
2023-04-26T00:21:13.646Z,1.00
2023-04-26T00:22:16.847Z,1.00
2023-04-26T00:23:19.794Z,0.93
2023-04-26T00:24:22.760Z,0.80
2023-04-26T00:25:25.754Z,1.08
2023-04-26T00:26:28.750Z,0.82
2023-04-26T00:27:31.927Z,0.88
2023-04-26T00:28:34.915Z,0.75
2023-04-26T00:29:38.063Z,0.80
2023-04-26T00:30:47.444Z,0.65
2023-04-26T00:31:50.584Z,0.85
2023-04-26T00:32:53.936Z,0.80
2023-04-26T00:33:57.138Z,0.90
2023-04-26T00:35:00.164Z,0.88
2023-04-26T00:36:03.259Z,0.85
2023-04-26T00:37:06.725Z,0.90
2023-04-26T00:38:09.662Z,0.93
2023-04-26T00:39:12.566Z,0.90
2023-04-26T00:40:17.256Z,0.90
2023-04-26T00:41:20.268Z,0.80
2023-04-26T00:42:23.296Z,0.73
2023-04-26T00:43:26.127Z,0.70
2023-04-26T00:44:29.046Z,0.90
2023-04-26T00:45:32.337Z,0.70
2023-04-26T00:46:35.361Z,1.08
2023-04-26T00:47:38.618Z,0.88
2023-04-26T00:48:42.533Z,0.60
2023-04-26T00:49:45.742Z,0.80
2023-04-26T00:50:48.902Z,0.82
2023-04-26T00:51:55.408Z,0.55
2023-04-26T00:52:59.151Z,0.73
2023-04-26T00:54:02.334Z,0.70
2023-04-26T00:55:06.167Z,0.70
2023-04-26T00:56:11.190Z,0.70
2023-04-26T00:57:14.078Z,0.70
2023-04-26T00:58:18.636Z,0.70
2023-04-26T00:59:21.865Z,0.60
2023-04-26T01:00:25.889Z,0.77
2023-04-26T01:01:29.386Z,0.90
2023-04-26T01:02:32.658Z,1.48
2023-04-26T01:03:35.999Z,1.02
2023-04-26T01:04:39.862Z,1.02
2023-04-26T01:05:42.824Z,1.02
2023-04-26T01:06:47.280Z,1.05
2023-04-26T01:07:51.139Z,1.10
2023-04-26T01:08:57.265Z,1.10
2023-04-26T01:10:00.739Z,0.90
2023-04-26T01:11:05.370Z,1.27
2023-04-26T01:12:09.147Z,1.00
2023-04-26T01:13:12.344Z,0.70
2023-04-26T01:14:16.509Z,1.00
2023-04-26T01:15:19.527Z,1.48
2023-04-26T01:16:24.023Z,0.90
2023-04-26T01:17:27.091Z,0.88
2023-04-26T01:18:33.177Z,0.95
2023-04-26T01:19:37.729Z,0.85
2023-04-26T01:20:42.939Z,0.80
2023-04-26T01:21:45.880Z,0.75
2023-04-26T01:22:50.607Z,1.15
2023-04-26T01:23:53.488Z,1.10
2023-04-26T01:24:58.280Z,1.27
2023-04-26T01:26:01.246Z,1.00
2023-04-26T01:27:04.264Z,1.13
2023-04-26T01:28:07.106Z,1.17
2023-04-26T01:29:21.685Z,1.33
2023-04-26T01:30:24.522Z,1.48
2023-04-26T01:31:27.419Z,1.48
2023-04-26T01:32:30.697Z,1.70
2023-04-26T01:33:34.455Z,2.60
2023-04-26T01:34:37.403Z,2.47
2023-04-26T01:35:40.344Z,2.63
2023-04-26T01:36:43.381Z,2.92
2023-04-26T01:37:46.209Z,3.03
2023-04-26T01:38:49.200Z,3.25
2023-04-26T01:39:52.657Z,2.60
2023-04-26T01:40:56.224Z,3.10
2023-04-26T01:41:59.123Z,3.08
2023-04-26T01:43:03.313Z,3.05
2023-04-26T01:44:06.673Z,3.13
2023-04-26T01:45:10.137Z,3.03
2023-04-26T01:46:31.496Z,3.63
2023-04-26T01:47:34.458Z,3.92
2023-04-26T01:48:37.342Z,3.88
2023-04-26T01:49:41.705Z,3.78
2023-04-26T01:50:44.603Z,4.40
2023-04-26T01:51:49.467Z,3.40
2023-04-26T01:52:52.349Z,4.80
2023-04-26T01:53:55.386Z,3.22
2023-04-26T01:54:58.238Z,3.20
2023-04-26T01:56:03.852Z,3.63
2023-04-26T01:57:07.159Z,3.90
2023-04-26T01:58:10.077Z,2.95
2023-04-26T01:59:13.048Z,3.28
2023-04-26T02:00:16.179Z,3.80
2023-04-26T02:01:19.348Z,3.35
2023-04-26T02:02:22.360Z,2.90
2023-04-26T02:03:25.935Z,3.10
2023-04-26T02:04:28.992Z,2.78
2023-04-26T02:05:32.129Z,3.15
2023-04-26T02:06:34.974Z,2.80
2023-04-26T02:07:38.007Z,2.67
2023-04-26T02:08:40.949Z,2.47
2023-04-26T02:09:44.270Z,2.65
2023-04-26T02:10:47.110Z,2.60
2023-04-26T02:11:50.168Z,2.72
2023-04-26T02:12:53.982Z,2.42
2023-04-26T02:13:57.051Z,2.22
2023-04-26T02:14:59.980Z,2.67
2023-04-26T02:16:03.732Z,2.88
2023-04-26T02:17:07.056Z,2.45
2023-04-26T02:18:11.667Z,2.67
2023-04-26T02:19:15.028Z,2.00
2023-04-26T02:20:17.910Z,2.40
2023-04-26T02:21:22.041Z,2.70
2023-04-26T02:22:25.515Z,2.17
2023-04-26T02:23:28.406Z,2.78
2023-04-26T02:24:33.065Z,2.30
2023-04-26T02:25:39.134Z,2.03
2023-04-26T02:26:42.218Z,2.17
2023-04-26T02:27:45.014Z,2.08
2023-04-26T02:28:47.938Z,2.67
2023-04-26T02:29:51.613Z,2.40
2023-04-26T02:30:56.746Z,2.30
2023-04-26T02:32:00.393Z,2.35
2023-04-26T02:33:03.355Z,2.00
2023-04-26T02:34:06.547Z,2.58
2023-04-26T02:35:10.763Z,2.50
2023-04-26T02:36:13.783Z,2.13
2023-04-26T02:37:16.915Z,2.00
2023-04-26T02:38:20.720Z,2.55
2023-04-26T02:39:23.779Z,2.65
2023-04-26T02:40:26.786Z,3.65
2023-04-26T02:41:34.509Z,3.92
2023-04-26T02:42:37.613Z,2.78
2023-04-26T02:43:40.723Z,2.42
2023-04-26T02:44:43.817Z,2.38
2023-04-26T02:45:46.885Z,3.70
2023-04-26T02:46:50.806Z,3.38
2023-04-26T02:47:54.101Z,3.80
2023-04-26T02:48:57.141Z,3.55
2023-04-26T02:50:00.129Z,2.67
2023-04-26T02:51:03.118Z,3.63
2023-04-26T02:52:06.132Z,4.10
2023-04-26T02:53:09.190Z,4.28
2023-04-26T02:54:12.054Z,3.50
2023-04-26T02:55:15.829Z,3.65
2023-04-26T02:56:19.549Z,3.80
2023-04-26T02:57:22.437Z,4.13
2023-04-26T02:58:27.145Z,3.50
2023-04-26T02:59:31.526Z,4.28
2023-04-26T03:00:34.539Z,3.60
2023-04-26T03:01:37.991Z,3.83
2023-04-26T03:02:41.948Z,3.58
2023-04-26T03:03:45.352Z,3.70
2023-04-26T03:04:48.380Z,2.97
2023-04-26T03:05:51.369Z,3.63
2023-04-26T03:06:54.652Z,3.03
2023-04-26T03:07:57.708Z,3.28
2023-04-26T03:09:00.925Z,3.53
2023-04-26T03:10:05.216Z,2.95
2023-04-26T03:11:08.633Z,3.88
2023-04-26T03:12:11.992Z,2.67
2023-04-26T03:13:15.272Z,4.97
2023-04-26T03:14:18.309Z,3.50
2023-04-26T03:15:22.915Z,3.95
2023-04-26T03:16:28.707Z,4.38
2023-04-26T03:17:32.078Z,3.58
2023-04-26T03:18:36.159Z,3.70
2023-04-26T03:19:39.188Z,3.92
2023-04-26T03:20:43.179Z,3.53
2023-04-26T03:21:46.118Z,3.58
2023-04-26T03:22:48.984Z,3.83
2023-04-26T03:23:51.971Z,4.50
2023-04-26T03:24:54.878Z,3.30
2023-04-26T03:25:58.092Z,3.67
2023-04-26T03:27:01.243Z,4.25
2023-04-26T03:28:04.471Z,3.97
2023-04-26T03:29:08.508Z,4.53
2023-04-26T03:30:13.455Z,5.35
2023-04-26T03:31:17.955Z,3.97
2023-04-26T03:32:20.868Z,3.90
2023-04-26T03:33:23.994Z,3.67
2023-04-26T03:34:27.517Z,3.28
2023-04-26T03:35:30.636Z,3.47
2023-04-26T03:36:34.649Z,3.80
2023-04-26T03:37:39.992Z,3.97
2023-04-26T03:38:47.046Z,3.42
2023-04-26T03:39:53.508Z,4.45
2023-04-26T03:40:58.327Z,3.33
2023-04-26T03:42:02.012Z,3.55
2023-04-26T03:43:04.864Z,3.35
2023-04-26T03:44:07.742Z,3.33
2023-04-26T03:45:11.110Z,2.67
2023-04-26T03:46:14.267Z,3.38
2023-04-26T03:47:17.190Z,3.13
2023-04-26T03:48:20.341Z,3.05
2023-04-26T03:49:23.422Z,2.85
2023-04-26T03:50:26.493Z,3.33
2023-04-26T03:51:29.436Z,3.00
2023-04-26T03:52:32.322Z,3.60
2023-04-26T03:53:35.297Z,2.92
2023-04-26T03:54:38.280Z,2.83
2023-04-26T03:55:41.977Z,2.72
2023-04-26T03:56:45.471Z,3.30
2023-04-26T03:57:48.900Z,3.63
2023-04-26T03:58:52.058Z,3.33
2023-04-26T03:59:55.226Z,2.83
2023-04-26T04:01:01.328Z,2.80
2023-04-26T04:02:05.107Z,2.83
2023-04-26T04:03:08.598Z,3.00
2023-04-26T04:04:11.967Z,3.65
2023-04-26T04:05:16.183Z,3.10
2023-04-26T04:06:19.136Z,3.15
2023-04-26T04:07:22.705Z,3.10
2023-04-26T04:08:25.768Z,3.03
2023-04-26T04:09:28.708Z,3.35
2023-04-26T04:10:31.730Z,4.68
2023-04-26T04:11:35.565Z,3.85
2023-04-26T04:12:38.440Z,3.30
2023-04-26T04:13:41.425Z,3.83
2023-04-26T04:14:44.225Z,3.55
2023-04-26T04:15:47.346Z,3.35
2023-04-26T04:16:50.857Z,3.17
2023-04-26T04:17:53.730Z,3.38
2023-04-26T04:18:56.819Z,3.50
2023-04-26T04:19:59.778Z,2.80
2023-04-26T04:21:03.441Z,3.65
2023-04-26T04:22:07.080Z,3.75
2023-04-26T04:23:10.960Z,3.20
2023-04-26T04:24:15.362Z,3.25
2023-04-26T04:25:21.206Z,3.88
2023-04-26T04:26:24.405Z,3.45
2023-04-26T04:27:27.679Z,4.13
2023-04-26T04:28:31.067Z,3.47
2023-04-26T04:29:35.048Z,3.20
2023-04-26T04:30:38.009Z,3.13
2023-04-26T04:31:41.718Z,3.25
2023-04-26T04:32:46.955Z,3.30
2023-04-26T04:33:51.478Z,3.58
2023-04-26T04:34:54.471Z,2.92
2023-04-26T04:35:57.355Z,2.95
2023-04-26T04:37:00.231Z,3.00
2023-04-26T04:38:03.360Z,3.17
2023-04-26T04:39:13.497Z,3.75
2023-04-26T04:40:16.809Z,2.90
2023-04-26T04:41:22.444Z,3.65
2023-04-26T04:42:27.334Z,3.95
2023-04-26T04:43:32.651Z,4.30
2023-04-26T04:44:39.938Z,3.85
2023-04-26T04:45:43.727Z,3.13
2023-04-26T04:46:47.108Z,3.30
2023-04-26T04:47:50.513Z,3.38
2023-04-26T04:48:53.895Z,3.60
2023-04-26T04:49:59.136Z,2.63
2023-04-26T04:51:03.004Z,3.55
2023-04-26T04:52:07.415Z,3.58
2023-04-26T04:53:10.832Z,4.07
2023-04-26T04:54:15.546Z,3.80
2023-04-26T04:55:18.610Z,3.45
2023-04-26T04:56:22.727Z,3.38
2023-04-26T04:57:27.275Z,3.55
2023-04-26T04:58:30.498Z,3.60
2023-04-26T04:59:33.499Z,3.50
2023-04-26T05:00:38.151Z,2.97
2023-04-26T05:01:59.501Z,3.00
2023-04-26T05:03:03.049Z,3.15
2023-04-26T05:04:07.681Z,3.05
2023-04-26T05:05:11.617Z,4.55
2023-04-26T05:06:15.008Z,3.63
2023-04-26T05:07:18.627Z,3.80
2023-04-26T05:08:21.916Z,3.50
2023-04-26T05:09:25.448Z,3.05
2023-04-26T05:10:28.388Z,3.33
2023-04-26T05:11:31.936Z,3.38
2023-04-26T05:12:36.675Z,2.95
2023-04-26T05:13:39.669Z,2.47
2023-04-26T05:14:42.639Z,2.63
2023-04-26T05:15:45.775Z,3.17
2023-04-26T05:16:48.800Z,2.97
2023-04-26T05:17:52.052Z,2.65
2023-04-26T05:18:58.229Z,2.90
2023-04-26T05:20:04.185Z,3.80
2023-04-26T05:21:07.551Z,3.05
2023-04-26T05:22:10.603Z,3.45
2023-04-26T05:23:13.793Z,2.92
2023-04-26T05:24:16.665Z,2.95
2023-04-26T05:25:22.327Z,3.15
2023-04-26T05:26:29.053Z,2.30
2023-04-26T05:27:50.619Z,3.25
2023-04-26T05:29:03.950Z,2.60
2023-04-26T05:30:16.653Z,3.00
2023-04-26T05:31:38.492Z,2.78
2023-04-26T05:33:00.048Z,2.75
2023-04-26T05:34:11.950Z,2.15
2023-04-26T05:35:16.320Z,2.10
2023-04-26T05:36:19.678Z,2.30
2023-04-26T05:37:22.560Z,2.85
2023-04-26T05:38:25.678Z,2.60
2023-04-26T05:39:28.750Z,2.17
2023-04-26T05:40:32.481Z,2.58
2023-04-26T05:41:36.446Z,2.85
2023-04-26T05:42:39.585Z,2.22
2023-04-26T05:43:43.653Z,2.15
2023-04-26T05:44:46.650Z,2.72
2023-04-26T05:45:57.264Z,2.92
2023-04-26T05:47:01.815Z,2.33
2023-04-26T05:48:05.011Z,2.65
2023-04-26T05:49:08.064Z,2.22
2023-04-26T05:50:11.379Z,2.80
2023-04-26T05:51:14.338Z,3.00
2023-04-26T05:52:17.403Z,3.22
2023-04-26T05:53:20.693Z,2.40
2023-04-26T05:54:23.726Z,2.72
2023-04-26T05:55:28.420Z,2.20
2023-04-26T05:56:31.480Z,2.58
2023-04-26T05:57:34.683Z,2.88
2023-04-26T05:58:37.719Z,2.30
2023-04-26T05:59:41.413Z,2.17
2023-04-26T06:00:44.773Z,2.15
2023-04-26T06:01:48.124Z,2.75
2023-04-26T06:02:51.932Z,2.60
2023-04-26T06:03:58.053Z,2.17
2023-04-26T06:05:06.855Z,2.00
2023-04-26T06:06:09.980Z,1.88
2023-04-26T06:07:15.205Z,2.10
2023-04-26T06:08:18.138Z,2.05
2023-04-26T06:09:21.281Z,2.10
2023-04-26T06:10:24.912Z,1.75
2023-04-26T06:11:27.885Z,2.33
2023-04-26T06:12:31.598Z,2.15
2023-04-26T06:13:35.405Z,2.10
2023-04-26T06:14:38.346Z,1.92
2023-04-26T06:15:44.900Z,2.20
2023-04-26T06:16:47.932Z,1.60
2023-04-26T06:17:50.920Z,1.83
2023-04-26T06:18:53.879Z,1.98
2023-04-26T06:19:56.825Z,1.75
2023-04-26T06:20:59.839Z,1.75
2023-04-26T06:22:02.886Z,1.77
2023-04-26T06:23:05.970Z,1.90
2023-04-26T06:24:09.616Z,1.77
2023-04-26T06:25:13.320Z,1.77
2023-04-26T06:26:16.280Z,2.00
2023-04-26T06:27:19.352Z,2.70
2023-04-26T06:28:24.602Z,2.35
2023-04-26T06:29:28.405Z,2.17
2023-04-26T06:30:33.507Z,2.40
2023-04-26T06:31:36.420Z,2.55
2023-04-26T06:32:41.609Z,2.00
2023-04-26T06:33:44.685Z,2.88
2023-04-26T06:34:48.882Z,2.03
2023-04-26T06:35:52.442Z,2.20
2023-04-26T06:36:55.380Z,2.40
2023-04-26T06:38:00.931Z,2.13
2023-04-26T06:39:04.070Z,2.25
2023-04-26T06:40:08.885Z,2.17
2023-04-26T06:41:11.748Z,2.40
2023-04-26T06:42:15.382Z,2.22
2023-04-26T06:43:37.731Z,1.63
2023-04-26T06:44:54.824Z,1.42
2023-04-26T06:45:57.802Z,1.90
2023-04-26T06:47:00.792Z,2.20
2023-04-26T06:48:04.962Z,2.25
2023-04-26T06:49:10.600Z,2.17
2023-04-26T06:50:14.832Z,1.48
2023-04-26T06:51:17.681Z,1.70
2023-04-26T06:52:21.595Z,1.85
2023-04-26T06:53:24.636Z,1.65
2023-04-26T06:54:31.324Z,1.85
2023-04-26T06:55:35.158Z,1.88
2023-04-26T06:56:38.086Z,1.98
2023-04-26T06:57:41.511Z,1.42
2023-04-26T06:59:06.960Z,1.95
2023-04-26T07:00:10.865Z,1.90
2023-04-26T07:01:13.707Z,1.80
2023-04-26T07:02:16.631Z,1.58
2023-04-26T07:03:20.204Z,1.92
2023-04-26T07:04:23.345Z,1.95
2023-04-26T07:05:26.360Z,2.40
2023-04-26T07:06:30.200Z,2.05
2023-04-26T07:07:33.093Z,1.92
2023-04-26T07:08:36.162Z,2.05
2023-04-26T07:09:39.096Z,1.80
2023-04-26T07:10:42.345Z,1.90
2023-04-26T07:11:48.419Z,1.77
2023-04-26T07:12:51.846Z,2.03
2023-04-26T07:13:55.784Z,1.70
2023-04-26T07:14:59.056Z,2.33
2023-04-26T07:16:01.975Z,1.73
2023-04-26T07:17:05.116Z,1.90
2023-04-26T07:18:08.683Z,1.65
2023-04-26T07:19:11.734Z,2.25
2023-04-26T07:20:19.739Z,1.95
2023-04-26T07:21:22.904Z,2.22
2023-04-26T07:22:25.904Z,1.77
2023-04-26T07:23:30.091Z,1.50
2023-04-26T07:24:33.087Z,1.55
2023-04-26T07:25:36.009Z,1.52
2023-04-26T07:26:38.905Z,1.85
2023-04-26T07:27:42.381Z,1.90
2023-04-26T07:28:45.374Z,1.55
2023-04-26T07:29:48.363Z,1.65
2023-04-26T07:30:51.696Z,1.60
2023-04-26T07:31:54.799Z,1.40
2023-04-26T07:32:57.909Z,1.75
2023-04-26T07:34:00.923Z,1.85
2023-04-26T07:35:07.977Z,1.70
2023-04-26T07:36:10.852Z,2.05
2023-04-26T07:37:13.672Z,1.90
2023-04-26T07:38:19.801Z,1.77
2023-04-26T07:39:23.029Z,1.70
2023-04-26T07:40:26.377Z,1.55
2023-04-26T07:41:29.356Z,1.60
2023-04-26T07:42:32.162Z,1.60
2023-04-26T07:43:35.088Z,1.50
2023-04-26T07:44:38.220Z,1.33
2023-04-26T07:45:41.768Z,1.95
2023-04-26T07:46:44.708Z,1.85
2023-04-26T07:47:48.101Z,2.00
2023-04-26T07:48:51.149Z,1.70
2023-04-26T07:49:54.800Z,1.95
2023-04-26T07:50:57.822Z,1.73
2023-04-26T07:52:02.298Z,1.65
2023-04-26T07:53:05.913Z,1.65
2023-04-26T07:54:08.865Z,1.83
2023-04-26T07:55:11.974Z,1.90
2023-04-26T07:56:15.751Z,1.80
2023-04-26T07:57:18.762Z,2.08
2023-04-26T07:58:21.687Z,2.35
2023-04-26T07:59:24.702Z,2.65
2023-04-26T08:00:27.830Z,1.92
2023-04-26T08:01:30.688Z,2.17
2023-04-26T08:02:44.053Z,2.25
2023-04-26T08:03:49.502Z,2.08
2023-04-26T08:04:53.451Z,1.80
2023-04-26T08:05:56.788Z,2.22
2023-04-26T08:07:02.178Z,1.90
2023-04-26T08:08:05.505Z,1.90
2023-04-26T08:09:08.479Z,2.10
2023-04-26T08:10:11.641Z,2.20
2023-04-26T08:11:14.878Z,2.15
2023-04-26T08:12:17.829Z,2.15
2023-04-26T08:13:21.599Z,2.40
2023-04-26T08:14:24.693Z,1.90
2023-04-26T08:15:27.577Z,1.85
2023-04-26T08:16:31.106Z,1.65
2023-04-26T08:17:34.912Z,2.40
2023-04-26T08:18:37.933Z,1.98
2023-04-26T08:19:41.325Z,1.48
2023-04-26T08:20:44.439Z,1.90
2023-04-26T08:21:47.485Z,1.95
2023-04-26T08:22:55.061Z,2.15
2023-04-26T08:23:58.056Z,1.77
2023-04-26T08:25:01.280Z,2.05
2023-04-26T08:26:04.862Z,2.28
2023-04-26T08:27:07.779Z,2.47
2023-04-26T08:28:14.464Z,1.70
2023-04-26T08:29:18.737Z,1.85
2023-04-26T08:30:22.707Z,1.77
2023-04-26T08:31:27.230Z,2.20
2023-04-26T08:32:30.874Z,2.05
2023-04-26T08:33:33.806Z,1.60
2023-04-26T08:34:37.055Z,2.15
2023-04-26T08:35:39.865Z,1.45
2023-04-26T08:36:42.810Z,1.65
2023-04-26T08:37:46.150Z,1.90
2023-04-26T08:38:49.074Z,1.75
2023-04-26T08:39:52.040Z,1.83
2023-04-26T08:40:58.861Z,1.33
2023-04-26T08:42:13.465Z,1.50
2023-04-26T08:43:17.732Z,1.70
2023-04-26T08:44:24.449Z,1.50
2023-04-26T08:45:27.539Z,1.98
2023-04-26T08:46:59.838Z,1.90
2023-04-26T08:48:13.556Z,1.70
2023-04-26T08:49:42.893Z,1.67
2023-04-26T08:50:49.290Z,1.77
2023-04-26T08:51:53.817Z,1.75
2023-04-26T08:52:56.981Z,2.15
2023-04-26T08:54:03.460Z,1.80
2023-04-26T08:55:10.233Z,1.70
2023-04-26T08:56:14.157Z,1.58
2023-04-26T08:57:18.478Z,1.33
2023-04-26T08:58:22.705Z,1.90
2023-04-26T08:59:25.945Z,1.35
2023-04-26T09:00:29.663Z,1.65
2023-04-26T09:01:34.210Z,1.50
2023-04-26T09:02:38.162Z,1.08
2023-04-26T09:03:41.995Z,1.38
2023-04-26T09:04:49.100Z,1.50
2023-04-26T09:05:53.306Z,1.35
2023-04-26T09:07:02.808Z,1.30
2023-04-26T09:08:08.679Z,1.25
2023-04-26T09:09:18.469Z,1.23
2023-04-26T09:10:22.896Z,1.45
2023-04-26T09:11:26.235Z,1.48
2023-04-26T09:12:29.280Z,1.73
2023-04-26T09:13:32.310Z,1.40
2023-04-26T09:14:35.887Z,1.58
2023-04-26T09:15:39.294Z,1.50
2023-04-26T09:16:42.277Z,1.38
2023-04-26T09:17:46.301Z,1.42
2023-04-26T09:18:57.291Z,2.03
2023-04-26T09:20:01.845Z,1.52
2023-04-26T09:21:07.890Z,1.73
2023-04-26T09:22:11.263Z,1.45
2023-04-26T09:23:17.241Z,1.38
2023-04-26T09:24:20.158Z,1.45
2023-04-26T09:25:31.476Z,1.30
2023-04-26T09:26:34.445Z,1.70
2023-04-26T09:27:43.291Z,1.63
2023-04-26T09:28:47.723Z,1.58
2023-04-26T09:30:05.980Z,1.30
2023-04-26T09:31:09.031Z,1.10
2023-04-26T09:32:11.926Z,1.25
2023-04-26T09:33:15.285Z,1.60
2023-04-26T09:34:18.161Z,1.50
2023-04-26T09:35:36.671Z,1.60
2023-04-26T09:36:53.435Z,1.10
2023-04-26T09:38:12.292Z,1.50
2023-04-26T09:39:34.340Z,0.90
2023-04-26T09:40:51.099Z,1.58
2023-04-26T09:41:54.159Z,2.33
2023-04-26T09:43:07.507Z,1.60
2023-04-26T09:44:23.175Z,1.35
2023-04-26T09:45:28.650Z,1.20
2023-04-26T09:46:31.612Z,1.52
2023-04-26T09:47:34.539Z,1.85
2023-04-26T09:48:37.532Z,1.83
2023-04-26T09:49:49.167Z,1.30
2023-04-26T09:50:54.891Z,1.60
2023-04-26T09:52:06.338Z,1.77
2023-04-26T09:53:09.452Z,1.80
2023-04-26T09:54:12.578Z,1.50
2023-04-26T09:55:35.433Z,1.73
2023-04-26T09:56:38.818Z,1.80
2023-04-26T09:57:44.793Z,1.55
2023-04-26T09:58:47.777Z,1.35
2023-04-26T09:59:55.389Z,1.50
2023-04-26T10:00:59.396Z,1.58
2023-04-26T10:02:03.386Z,2.03
2023-04-26T10:03:09.885Z,1.40
2023-04-26T10:04:13.420Z,1.65
2023-04-26T10:05:17.423Z,1.90
2023-04-26T10:06:20.480Z,1.20
2023-04-26T10:07:25.313Z,1.25
2023-04-26T10:08:28.372Z,1.17
2023-04-26T10:09:32.631Z,1.50
2023-04-26T10:10:37.247Z,1.50
2023-04-26T10:11:40.574Z,1.50
2023-04-26T10:12:44.521Z,1.88
2023-04-26T10:13:50.577Z,1.60
2023-04-26T10:14:53.681Z,1.70
2023-04-26T10:15:57.037Z,2.20
2023-04-26T10:17:00.730Z,2.00
2023-04-26T10:18:03.893Z,2.38
2023-04-26T10:19:07.675Z,1.73
2023-04-26T10:20:14.392Z,1.73
2023-04-26T10:21:31.578Z,1.65
2023-04-26T10:22:46.279Z,2.15
2023-04-26T10:23:50.420Z,1.98
2023-04-26T10:24:55.979Z,1.60
2023-04-26T10:25:59.282Z,1.80
2023-04-26T10:27:04.375Z,1.52
2023-04-26T10:28:08.004Z,2.30
2023-04-26T10:29:11.094Z,1.40
2023-04-26T10:30:19.502Z,1.67
2023-04-26T10:31:22.363Z,1.80
2023-04-26T10:32:25.465Z,1.65
2023-04-26T10:33:28.470Z,2.22
2023-04-26T10:34:33.896Z,1.65
2023-04-26T10:35:38.238Z,1.88
2023-04-26T10:37:16.919Z,1.60
2023-04-26T10:38:20.756Z,1.77
2023-04-26T10:39:25.229Z,2.10
2023-04-26T10:40:36.412Z,2.38
2023-04-26T10:41:40.133Z,1.95
2023-04-26T10:42:43.144Z,2.05
2023-04-26T10:43:46.024Z,1.60
2023-04-26T10:45:12.549Z,1.20
2023-04-26T10:46:41.264Z,1.40
2023-04-26T10:47:44.448Z,1.25
2023-04-26T10:48:48.043Z,1.15
2023-04-26T10:49:52.024Z,1.50
2023-04-26T10:51:11.966Z,1.50
2023-04-26T10:52:23.217Z,1.10
2023-04-26T10:53:27.512Z,1.50
2023-04-26T10:55:03.873Z,1.15
2023-04-26T10:56:06.927Z,1.40
2023-04-26T10:57:09.981Z,1.60
2023-04-26T10:58:35.607Z,1.42
2023-04-26T10:59:51.340Z,1.30
2023-04-26T11:01:17.066Z,1.55
2023-04-26T11:02:52.475Z,1.67
2023-04-26T11:03:59.250Z,1.50
2023-04-26T11:05:04.354Z,2.15
2023-04-26T11:06:09.943Z,2.08
2023-04-26T11:07:14.479Z,1.90
2023-04-26T11:08:32.253Z,1.50
2023-04-26T11:09:39.661Z,2.13
2023-04-26T11:10:50.043Z,2.47
2023-04-26T11:11:56.211Z,1.48
2023-04-26T11:13:03.435Z,1.58
2023-04-26T11:14:07.419Z,1.85
2023-04-26T11:15:13.074Z,1.50
2023-04-26T11:16:17.323Z,1.50
2023-04-26T11:17:20.881Z,1.60
2023-04-26T11:18:23.876Z,1.58
2023-04-26T11:19:27.347Z,1.27
2023-04-26T11:20:32.305Z,1.85
2023-04-26T11:21:37.122Z,1.85
2023-04-26T11:22:41.934Z,1.63
2023-04-26T11:23:55.142Z,1.42
2023-04-26T11:25:01.064Z,1.67
2023-04-26T11:26:11.411Z,2.10
2023-04-26T11:27:14.345Z,2.10
2023-04-26T11:28:18.597Z,1.60
2023-04-26T11:29:21.990Z,1.75
2023-04-26T11:30:25.129Z,1.73
2023-04-26T11:31:31.424Z,1.83
2023-04-26T11:32:34.338Z,1.77
2023-04-26T11:33:37.473Z,1.60
2023-04-26T11:34:40.672Z,1.55
2023-04-26T11:35:43.680Z,2.33
2023-04-26T11:36:46.810Z,1.75
2023-04-26T11:37:52.394Z,1.58
2023-04-26T11:38:55.691Z,2.35
2023-04-26T11:39:58.744Z,1.50
2023-04-26T11:41:04.155Z,1.38
2023-04-26T11:42:12.553Z,2.38
2023-04-26T11:43:16.153Z,1.60
2023-04-26T11:44:23.736Z,2.00
2023-04-26T11:45:26.934Z,1.50
2023-04-26T11:46:30.257Z,1.92
2023-04-26T11:47:35.004Z,1.70
2023-04-26T11:48:39.464Z,1.50
2023-04-26T11:49:43.148Z,1.38
2023-04-26T11:50:46.606Z,1.50
2023-04-26T11:51:50.151Z,1.35
2023-04-26T11:52:57.291Z,2.22
2023-04-26T11:54:01.866Z,2.15
2023-04-26T11:55:06.678Z,1.40
2023-04-26T11:56:20.520Z,1.63
2023-04-26T11:57:23.419Z,1.67
2023-04-26T11:58:26.680Z,1.52
2023-04-26T11:59:30.926Z,2.30
2023-04-26T12:00:33.975Z,1.40
2023-04-26T12:01:37.270Z,2.55
2023-04-26T12:02:50.206Z,1.75
2023-04-26T12:03:58.490Z,1.35
2023-04-26T12:05:01.746Z,1.27
2023-04-26T12:06:06.328Z,1.45
2023-04-26T12:07:09.741Z,1.75
2023-04-26T12:08:12.696Z,1.73
2023-04-26T12:09:15.734Z,1.30
2023-04-26T12:10:21.572Z,1.85
2023-04-26T12:11:24.393Z,1.52
2023-04-26T12:12:28.608Z,1.45
2023-04-26T12:13:32.712Z,1.70
2023-04-26T12:14:38.232Z,2.10
2023-04-26T12:15:41.288Z,1.80
2023-04-26T12:16:44.343Z,1.40
2023-04-26T12:18:06.617Z,1.48
2023-04-26T12:19:11.301Z,2.05
2023-04-26T12:20:15.080Z,1.20
2023-04-26T12:21:18.672Z,1.75
2023-04-26T12:22:24.588Z,1.92
2023-04-26T12:23:28.209Z,1.98
2023-04-26T12:24:36.704Z,1.45
2023-04-26T12:25:41.440Z,1.30
2023-04-26T12:26:45.060Z,1.45
2023-04-26T12:27:48.067Z,1.20
2023-04-26T12:28:51.112Z,1.52
2023-04-26T12:29:54.038Z,1.40
2023-04-26T12:30:57.271Z,1.10
2023-04-26T12:32:00.833Z,1.80
2023-04-26T12:33:15.744Z,1.40
2023-04-26T12:34:20.573Z,1.98
2023-04-26T12:35:25.353Z,1.52
2023-04-26T12:36:28.386Z,1.80
2023-04-26T12:37:31.242Z,1.13
2023-04-26T12:38:34.068Z,1.45
2023-04-26T12:39:37.079Z,2.08
2023-04-26T12:40:40.021Z,1.48
2023-04-26T12:41:44.022Z,1.10
2023-04-26T12:42:51.121Z,1.55
2023-04-26T12:43:54.175Z,1.58
2023-04-26T12:44:57.083Z,1.77
2023-04-26T12:46:01.116Z,1.50
2023-04-26T12:47:04.295Z,1.60
2023-04-26T12:48:07.504Z,1.88
2023-04-26T12:49:10.507Z,1.30
2023-04-26T12:50:15.603Z,1.90
2023-04-26T12:51:19.969Z,1.58
2023-04-26T12:52:22.985Z,1.45
2023-04-26T12:53:25.941Z,1.45
2023-04-26T12:54:28.959Z,1.75
2023-04-26T12:55:33.055Z,1.58
2023-04-26T12:56:40.790Z,1.40
2023-04-26T12:57:45.771Z,1.20
2023-04-26T12:58:49.261Z,1.10
2023-04-26T12:59:52.245Z,1.42
2023-04-26T13:00:55.361Z,1.23
2023-04-26T13:01:58.371Z,1.33
2023-04-26T13:03:01.569Z,1.48
2023-04-26T13:04:06.041Z,1.55
2023-04-26T13:05:10.690Z,1.20
2023-04-26T13:06:13.824Z,2.05
2023-04-26T13:07:17.449Z,2.03
2023-04-26T13:08:20.550Z,1.55
2023-04-26T13:09:23.461Z,1.75
2023-04-26T13:10:26.813Z,1.50
2023-04-26T13:11:29.720Z,1.45
2023-04-26T13:12:33.512Z,1.58
2023-04-26T13:13:43.785Z,1.60
2023-04-26T13:14:47.787Z,1.80
2023-04-26T13:15:51.154Z,2.15
2023-04-26T13:16:54.225Z,2.13
2023-04-26T13:17:57.220Z,1.67
2023-04-26T13:19:01.288Z,1.63
2023-04-26T13:20:06.578Z,2.25
2023-04-26T13:21:09.521Z,1.98
2023-04-26T13:22:13.192Z,2.22
2023-04-26T13:23:16.297Z,1.73
2023-04-26T13:24:19.694Z,1.70
2023-04-26T13:25:22.635Z,1.77
2023-04-26T13:26:27.528Z,1.90
2023-04-26T13:27:31.725Z,1.70
2023-04-26T13:28:36.371Z,2.10
2023-04-26T13:29:39.917Z,2.00
2023-04-26T13:30:42.742Z,2.28
2023-04-26T13:31:45.666Z,1.80
2023-04-26T13:32:49.012Z,2.20
2023-04-26T13:33:51.996Z,1.55
2023-04-26T13:34:55.253Z,2.30
2023-04-26T13:35:58.080Z,1.58
2023-04-26T13:37:01.231Z,2.28
2023-04-26T13:38:04.190Z,1.48
2023-04-26T13:39:07.370Z,1.83
2023-04-26T13:40:13.647Z,2.30
2023-04-26T13:41:16.811Z,2.25
2023-04-26T13:42:19.906Z,2.13
2023-04-26T13:43:23.090Z,2.75
2023-04-26T13:44:27.042Z,1.95
2023-04-26T13:45:29.974Z,1.80
2023-04-26T13:46:32.911Z,1.63
2023-04-26T13:47:36.651Z,1.98
2023-04-26T13:48:39.613Z,1.90
2023-04-26T13:49:42.763Z,1.88
2023-04-26T13:50:45.897Z,1.90
2023-04-26T13:51:49.125Z,2.17
2023-04-26T13:52:53.035Z,1.80
2023-04-26T13:53:56.225Z,2.15
2023-04-26T13:55:01.056Z,2.28
2023-04-26T13:56:04.442Z,2.28
2023-04-26T13:57:07.345Z,2.05
2023-04-26T13:58:10.722Z,1.75
2023-04-26T13:59:16.663Z,2.63
2023-04-26T14:00:20.065Z,2.38
2023-04-26T14:01:23.578Z,2.58
2023-04-26T14:02:27.032Z,2.70
2023-04-26T14:03:30.225Z,2.47
2023-04-26T14:04:33.561Z,2.60
2023-04-26T14:05:37.020Z,1.88
2023-04-26T14:06:39.858Z,1.90
2023-04-26T14:07:42.696Z,2.03
2023-04-26T14:08:45.657Z,2.10
2023-04-26T14:09:48.565Z,1.67
2023-04-26T14:10:51.626Z,1.88
2023-04-26T14:12:07.316Z,2.35
2023-04-26T14:13:11.801Z,2.00
2023-04-26T14:14:14.716Z,1.88
2023-04-26T14:15:17.635Z,1.92
2023-04-26T14:16:20.621Z,2.08
2023-04-26T14:17:23.707Z,1.73
2023-04-26T14:18:26.675Z,1.88
2023-04-26T14:19:29.787Z,2.15
2023-04-26T14:20:32.721Z,2.20
2023-04-26T14:21:35.603Z,2.78
2023-04-26T14:22:38.480Z,2.55